Time;durP1;ratioP1;P1;durP2;ratioP2;P2;SDS_P1;SDS_P2;PMS_P1;PMS_P2;Temp;Humidity;BMP_temperature;BMP_pressure;BME280_temperature;BME280_humidity;BME280_pressure;Samples;Min_cycle;Max_cycle;Signal;HPM_P1;HPM_P2
2024/01/01 00:01:24;;;;;;;17.35;5.85;;;9.70;99.90;;;;;;5039491;28;20032;-77
2024/01/01 00:03:50;;;;;;;10.95;3.10;;;9.70;99.90;;;;;;5044538;28;20372;-76
2024/01/01 00:06:15;;;;;;;13.05;3.50;;;9.70;99.90;;;;;;5047602;28;20071;-76
2024/01/01 00:08:41;;;;;;;15.23;3.50;;;9.70;99.90;;;;;;5040844;28;20047;-76
2024/01/01 00:11:07;;;;;;;15.48;3.08;;;9.80;99.90;;;;;;5040566;28;20021;-76
2024/01/01 00:13:32;;;;;;;12.68;3.78;;;9.70;99.90;;;;;;5047315;28;20119;-76
2024/01/01 00:15:58;;;;;;;12.52;3.17;;;9.70;99.90;;;;;;5040139;28;20363;-76
2024/01/01 00:18:24;;;;;;;9.57;2.78;;;9.90;99.90;;;;;;5045317;28;20021;-76
2024/01/01 00:20:49;;;;;;;11.15;2.92;;;9.60;99.90;;;;;;5052519;28;20119;-76
2024/01/01 00:23:15;;;;;;;9.25;2.78;;;9.60;99.90;;;;;;5047236;28;20084;-76
2024/01/01 00:25:41;;;;;;;16.33;2.92;;;9.60;99.90;;;;;;5047792;28;20043;-77
2024/01/01 00:28:07;;;;;;;9.18;2.45;;;9.40;99.90;;;;;;5045126;28;20033;-78
2024/01/01 00:30:33;;;;;;;12.57;3.35;;;9.30;99.90;;;;;;5054746;28;20029;-76
2024/01/01 00:32:59;;;;;;;9.35;2.28;;;9.20;99.90;;;;;;5050226;28;20470;-77
2024/01/01 00:35:25;;;;;;;12.02;2.33;;;9.10;99.90;;;;;;5052843;28;20036;-79
2024/01/01 00:37:51;;;;;;;7.25;2.70;;;9.00;99.90;;;;;;5052896;28;20045;-78
2024/01/01 00:40:16;;;;;;;16.27;3.22;;;9.00;99.90;;;;;;5042114;28;20065;-77
2024/01/01 00:42:43;;;;;;;10.48;2.40;;;8.90;99.90;;;;;;5041332;28;20048;-78
2024/01/01 00:45:09;;;;;;;10.23;2.28;;;9.00;99.90;;;;;;5044686;28;20039;-78
2024/01/01 00:47:35;;;;;;;11.13;2.47;;;9.00;99.90;;;;;;5041046;28;20071;-78
2024/01/01 00:50:01;;;;;;;11.23;2.33;;;8.90;99.90;;;;;;5043820;28;20503;-79
2024/01/01 00:52:27;;;;;;;8.60;2.25;;;8.80;99.90;;;;;;5051021;28;20017;-79
2024/01/01 00:54:52;;;;;;;9.65;2.72;;;8.80;99.90;;;;;;5049440;28;20032;-78
2024/01/01 00:57:18;;;;;;;11.10;2.78;;;8.70;99.90;;;;;;5048241;28;20641;-78
2024/01/01 00:59:44;;;;;;;14.32;2.92;;;8.80;99.90;;;;;;5052261;28;20037;-78
2024/01/01 01:02:10;;;;;;;9.93;2.85;;;8.70;99.90;;;;;;5039242;28;20070;-79
2024/01/01 01:04:35;;;;;;;8.77;2.28;;;8.80;99.90;;;;;;5041665;28;20455;-78
2024/01/01 01:07:02;;;;;;;12.20;3.08;;;8.80;99.90;;;;;;5042475;28;20113;-78
2024/01/01 01:09:28;;;;;;;13.65;3.15;;;8.80;99.90;;;;;;5039857;28;20026;-78
2024/01/01 01:11:54;;;;;;;13.98;2.90;;;8.80;99.90;;;;;;5040153;28;20071;-78
2024/01/01 01:14:19;;;;;;;15.75;2.85;;;8.70;99.90;;;;;;5047640;28;20025;-78
2024/01/01 01:16:46;;;;;;;11.23;3.28;;;8.80;99.90;;;;;;5042076;28;20394;-78
2024/01/01 01:19:11;;;;;;;12.32;3.42;;;8.80;99.90;;;;;;5043614;28;20051;-77
2024/01/01 01:21:37;;;;;;;12.20;3.45;;;8.80;99.90;;;;;;5046506;28;20048;-78
2024/01/01 01:24:04;;;;;;;12.95;3.45;;;8.80;99.90;;;;;;5047864;28;20033;-77
2024/01/01 01:26:29;;;;;;;23.70;3.92;;;8.80;99.90;;;;;;5042572;28;20059;-77
2024/01/01 01:28:56;;;;;;;20.65;3.95;;;8.80;99.90;;;;;;5038144;28;20068;-77
2024/01/01 01:31:23;;;;;;;16.25;3.17;;;8.80;99.90;;;;;;5041634;28;20031;-76
2024/01/01 01:33:49;;;;;;;20.52;5.15;;;8.90;99.90;;;;;;5047259;28;20027;-84
2024/01/01 01:36:14;;;;;;;18.15;4.55;;;8.80;99.90;;;;;;5041938;28;20113;-75
2024/01/01 01:38:40;;;;;;;21.02;5.20;;;8.80;99.90;;;;;;5035980;28;20148;-77
2024/01/01 01:41:06;;;;;;;19.00;3.60;;;8.90;99.90;;;;;;5043638;28;20028;-76
2024/01/01 01:43:32;;;;;;;21.67;5.07;;;8.90;99.90;;;;;;5053319;28;20029;-76
2024/01/01 01:45:59;;;;;;;14.52;3.92;;;8.80;99.90;;;;;;5049054;28;20036;-76
2024/01/01 01:48:25;;;;;;;20.55;3.92;;;8.80;99.90;;;;;;5044922;28;20046;-76
2024/01/01 01:50:51;;;;;;;11.15;3.25;;;8.90;99.90;;;;;;5043695;28;20080;-76
2024/01/01 01:53:24;;;;;;;16.00;3.80;;;8.90;99.90;;;;;;5050581;28;20052;-76
2024/01/01 01:55:51;;;;;;;22.58;4.10;;;8.90;99.90;;;;;;5045432;28;20021;-76
2024/01/01 01:58:17;;;;;;;23.55;4.03;;;8.90;99.90;;;;;;5041276;28;20083;-76
2024/01/01 02:00:45;;;;;;;18.33;3.13;;;8.90;99.90;;;;;;5046286;28;20028;-76
2024/01/01 02:03:12;;;;;;;21.40;4.00;;;8.80;99.90;;;;;;5041989;28;20073;-76
2024/01/01 02:05:38;;;;;;;15.45;3.83;;;8.70;99.90;;;;;;5044768;28;20021;-76
2024/01/01 02:08:05;;;;;;;18.92;3.40;;;8.70;99.90;;;;;;5051593;28;20044;-76
2024/01/01 02:10:30;;;;;;;22.98;3.03;;;8.70;99.90;;;;;;5045801;28;20017;-76
2024/01/01 02:12:56;;;;;;;17.02;3.45;;;8.70;99.90;;;;;;5045349;28;20056;-76
2024/01/01 02:15:22;;;;;;;14.55;3.20;;;8.70;99.90;;;;;;5041161;28;20017;-75
2024/01/01 02:17:48;;;;;;;27.33;4.88;;;8.70;99.90;;;;;;5036778;28;20024;-76
2024/01/01 02:20:15;;;;;;;23.17;3.30;;;8.70;99.90;;;;;;5043376;28;20379;-76
2024/01/01 02:22:41;;;;;;;20.70;3.65;;;8.70;99.90;;;;;;5046787;28;20040;-75
2024/01/01 02:25:08;;;;;;;22.88;4.72;;;8.80;99.90;;;;;;5045600;28;20104;-75
2024/01/01 02:27:39;;;;;;;21.58;4.38;;;8.80;99.90;;;;;;5039340;28;20104;-75
2024/01/01 02:30:12;;;;;;;16.90;3.53;;;8.70;99.90;;;;;;5045427;28;20097;-76
2024/01/01 02:32:38;;;;;;;16.98;3.67;;;8.70;99.90;;;;;;5042346;28;20096;-76
2024/01/01 02:35:08;;;;;;;18.92;3.50;;;8.70;99.90;;;;;;5046672;28;20036;-76
2024/01/01 02:37:35;;;;;;;28.85;4.18;;;8.70;99.90;;;;;;5041033;28;20059;-76
2024/01/01 02:40:01;;;;;;;15.50;3.15;;;8.60;99.90;;;;;;5044832;28;20202;-75
2024/01/01 02:42:29;;;;;;;22.95;3.92;;;8.60;99.90;;;;;;5041345;28;20057;-76
2024/01/01 02:44:55;;;;;;;14.30;3.15;;;8.80;99.90;;;;;;5036674;28;20033;-75
2024/01/01 02:47:20;;;;;;;16.73;3.22;;;8.70;99.90;;;;;;5044536;28;20036;-76
2024/01/01 02:49:46;;;;;;;21.70;4.18;;;8.80;99.90;;;;;;5040066;28;20037;-76
2024/01/01 02:52:12;;;;;;;19.80;3.95;;;8.70;99.90;;;;;;5043941;28;20026;-75
2024/01/01 02:54:37;;;;;;;20.25;3.28;;;8.70;99.90;;;;;;5046904;28;20033;-75
2024/01/01 02:57:03;;;;;;;18.55;3.20;;;8.70;99.90;;;;;;5044547;28;20449;-76
2024/01/01 02:59:29;;;;;;;22.20;3.20;;;8.70;99.90;;;;;;5046612;28;20029;-76
2024/01/01 03:01:55;;;;;;;21.85;3.28;;;8.80;99.90;;;;;;5046107;28;20033;-76
2024/01/01 03:04:20;;;;;;;17.52;3.78;;;8.80;99.90;;;;;;5053778;28;20025;-76
2024/01/01 03:06:46;;;;;;;17.75;3.30;;;8.80;99.90;;;;;;5044276;28;20060;-77
2024/01/01 03:09:12;;;;;;;17.52;4.47;;;8.70;99.90;;;;;;5042478;28;20504;-76
2024/01/01 03:11:38;;;;;;;19.05;4.05;;;8.90;99.90;;;;;;5042547;28;20088;-76
2024/01/01 03:14:04;;;;;;;17.00;3.00;;;8.70;99.90;;;;;;5041900;28;20104;-76
2024/01/01 03:16:29;;;;;;;27.13;3.72;;;8.80;99.90;;;;;;5048209;28;20108;-76
2024/01/01 03:18:55;;;;;;;18.73;3.80;;;8.80;99.90;;;;;;5049560;28;20041;-76
2024/01/01 03:21:21;;;;;;;18.15;3.58;;;8.80;99.90;;;;;;5046467;28;20390;-76
2024/01/01 03:23:47;;;;;;;15.82;3.72;;;8.80;99.90;;;;;;5038988;28;20033;-76
2024/01/01 03:26:12;;;;;;;17.70;3.67;;;8.80;99.90;;;;;;5045628;28;20033;-75
2024/01/01 03:28:38;;;;;;;22.30;3.95;;;8.80;99.90;;;;;;5039902;28;20095;-76
2024/01/01 03:31:05;;;;;;;22.58;4.63;;;8.80;99.90;;;;;;5036731;28;20467;-76
2024/01/01 03:33:34;;;;;;;20.63;3.78;;;8.90;99.90;;;;;;5051249;28;20037;-76
2024/01/01 03:36:00;;;;;;;19.10;4.00;;;8.90;99.90;;;;;;5044898;28;20036;-75
2024/01/01 03:38:25;;;;;;;20.92;3.92;;;8.90;99.90;;;;;;5041669;28;20460;-76
2024/01/01 03:40:51;;;;;;;16.40;3.33;;;8.90;99.90;;;;;;5041480;28;20021;-76
2024/01/01 03:43:17;;;;;;;19.08;3.20;;;8.90;99.90;;;;;;5042669;28;20034;-76
2024/01/01 03:45:43;;;;;;;30.00;3.47;;;8.90;99.90;;;;;;5041942;28;20053;-76
2024/01/01 03:48:08;;;;;;;19.02;3.17;;;8.90;99.90;;;;;;5046315;28;20047;-76
2024/01/01 03:50:34;;;;;;;21.77;4.18;;;8.90;99.90;;;;;;5045857;28;20393;-76
2024/01/01 03:53:00;;;;;;;22.20;2.80;;;9.00;99.90;;;;;;5047433;28;20059;-76
2024/01/01 03:55:26;;;;;;;17.02;3.25;;;9.00;99.90;;;;;;5046276;28;20507;-76
2024/01/01 03:57:52;;;;;;;20.48;3.50;;;9.00;99.90;;;;;;5042450;28;20033;-76
2024/01/01 04:00:18;;;;;;;23.00;2.97;;;9.00;99.90;;;;;;5041522;28;20035;-76
2024/01/01 04:02:46;;;;;;;18.08;2.97;;;9.00;99.90;;;;;;5041159;28;20026;-76
2024/01/01 04:05:12;;;;;;;23.42;3.80;;;9.00;99.90;;;;;;5047418;28;20149;-76
2024/01/01 04:07:38;;;;;;;18.00;2.97;;;9.00;99.90;;;;;;5051303;28;20040;-76
2024/01/01 04:10:06;;;;;;;20.70;3.60;;;8.90;99.90;;;;;;5042926;28;20029;-76
2024/01/01 04:12:32;;;;;;;18.40;3.30;;;8.90;99.90;;;;;;5046162;28;20109;-76
2024/01/01 04:14:58;;;;;;;12.18;2.85;;;8.90;99.90;;;;;;5044891;28;20103;-76
2024/01/01 04:17:23;;;;;;;14.20;2.95;;;8.80;99.90;;;;;;5052680;28;20128;-76
2024/01/01 04:19:49;;;;;;;17.75;3.83;;;8.80;99.90;;;;;;5038790;28;20068;-76
2024/01/01 04:22:16;;;;;;;28.02;3.50;;;8.90;99.90;;;;;;5043198;28;20048;-76
2024/01/01 04:24:43;;;;;;;14.38;3.20;;;9.00;99.90;;;;;;5046054;28;20643;-76
2024/01/01 04:27:08;;;;;;;21.20;3.60;;;8.90;99.90;;;;;;5041445;28;20021;-76
2024/01/01 04:29:34;;;;;;;20.58;2.65;;;8.90;99.90;;;;;;5040143;28;20025;-75
2024/01/01 04:32:00;;;;;;;17.65;3.10;;;9.00;99.90;;;;;;5052757;28;20700;-76
2024/01/01 04:34:26;;;;;;;10.55;2.78;;;8.90;99.90;;;;;;5052527;28;20493;-76
2024/01/01 04:36:52;;;;;;;21.65;3.20;;;9.00;99.90;;;;;;5044996;28;20028;-76
2024/01/01 04:39:17;;;;;;;15.20;3.38;;;8.90;99.90;;;;;;5044873;28;20025;-76
2024/01/01 04:41:43;;;;;;;15.02;2.70;;;8.90;99.90;;;;;;5040696;28;20025;-76
2024/01/01 04:44:09;;;;;;;16.25;2.83;;;8.90;99.90;;;;;;5042642;28;20533;-77
2024/01/01 04:46:35;;;;;;;18.65;2.80;;;8.90;99.90;;;;;;5038620;28;20394;-77
2024/01/01 04:49:00;;;;;;;17.92;3.90;;;8.90;99.90;;;;;;5045963;28;20049;-77
2024/01/01 04:51:26;;;;;;;12.38;2.72;;;8.80;99.90;;;;;;5047896;28;20389;-77
2024/01/01 04:53:52;;;;;;;14.35;3.00;;;8.80;99.90;;;;;;5044630;28;20105;-77
2024/01/01 04:56:19;;;;;;;17.88;3.42;;;8.90;99.90;;;;;;5044560;28;20029;-76
2024/01/01 04:58:45;;;;;;;15.63;3.58;;;8.90;99.90;;;;;;5044325;28;20021;-78
2024/01/01 05:01:11;;;;;;;16.67;3.33;;;8.90;99.90;;;;;;5048101;28;20110;-77
2024/01/01 05:03:36;;;;;;;19.55;3.40;;;8.90;99.90;;;;;;5039062;28;20026;-77
2024/01/01 05:06:02;;;;;;;16.98;2.95;;;8.90;99.90;;;;;;5043296;28;20438;-76
2024/01/01 05:08:28;;;;;;;16.58;2.90;;;8.90;99.90;;;;;;5046371;28;20569;-76
2024/01/01 05:10:53;;;;;;;17.13;4.45;;;8.90;99.90;;;;;;5042852;28;20504;-76
2024/01/01 05:13:19;;;;;;;13.40;3.15;;;8.80;99.90;;;;;;5043200;28;20098;-76
2024/01/01 05:15:44;;;;;;;18.48;3.25;;;8.90;99.90;;;;;;5045474;28;20029;-76
2024/01/01 05:18:10;;;;;;;24.08;3.13;;;8.90;99.90;;;;;;5044329;28;20385;-76
2024/01/01 05:20:36;;;;;;;16.15;3.05;;;8.80;99.90;;;;;;5036868;28;20031;-76
2024/01/01 05:23:01;;;;;;;20.00;2.78;;;8.80;99.90;;;;;;5044167;28;20029;-76
2024/01/01 05:25:27;;;;;;;13.70;2.25;;;8.70;99.90;;;;;;5041696;28;20458;-77
2024/01/01 05:27:53;;;;;;;16.42;2.85;;;8.70;99.90;;;;;;5041176;28;20073;-76
2024/01/01 05:30:19;;;;;;;12.30;2.80;;;8.80;99.90;;;;;;5050113;28;20047;-76
2024/01/01 05:32:44;;;;;;;13.93;2.85;;;8.70;99.90;;;;;;5045275;28;20466;-77
2024/01/01 05:35:10;;;;;;;14.13;2.78;;;8.70;99.90;;;;;;5040030;28;20022;-76
2024/01/01 05:37:36;;;;;;;13.43;2.95;;;8.80;99.90;;;;;;5005583;28;1136047;-76
2024/01/01 05:40:02;;;;;;;14.18;2.60;;;8.70;99.90;;;;;;5039971;28;20108;-77
2024/01/01 05:42:31;;;;;;;11.45;2.97;;;8.80;99.90;;;;;;5046831;28;20028;-77
2024/01/01 05:44:57;;;;;;;16.85;2.55;;;8.70;99.90;;;;;;5045661;28;20064;-76
2024/01/01 05:47:23;;;;;;;16.20;3.10;;;8.70;99.90;;;;;;5042741;28;20064;-76
2024/01/01 05:49:48;;;;;;;14.40;2.90;;;8.80;99.90;;;;;;5042591;28;20028;-77
2024/01/01 05:52:17;;;;;;;14.02;2.88;;;8.80;99.90;;;;;;5047664;28;20036;-76
2024/01/01 05:54:43;;;;;;;17.48;3.33;;;8.70;99.90;;;;;;5044054;28;20053;-76
2024/01/01 05:57:09;;;;;;;10.43;2.28;;;8.70;99.90;;;;;;5042501;28;20033;-76
2024/01/01 05:59:35;;;;;;;12.93;2.42;;;8.70;99.90;;;;;;5050441;28;20036;-76
2024/01/01 06:02:00;;;;;;;16.70;3.00;;;8.70;99.90;;;;;;5048544;28;20060;-77
2024/01/01 06:04:26;;;;;;;13.38;3.00;;;8.70;99.90;;;;;;5043505;28;20017;-76
2024/01/01 06:06:52;;;;;;;20.70;2.40;;;8.70;99.90;;;;;;5042189;28;20100;-76
2024/01/01 06:09:18;;;;;;;13.98;2.60;;;8.70;99.90;;;;;;5041416;28;20553;-76
2024/01/01 06:11:44;;;;;;;11.05;2.60;;;8.70;99.90;;;;;;5045115;28;20043;-76
2024/01/01 06:14:11;;;;;;;11.50;2.17;;;8.70;99.90;;;;;;5045275;28;20033;-76
2024/01/01 06:16:37;;;;;;;6.60;2.10;;;8.60;99.90;;;;;;5041675;28;20029;-77
2024/01/01 06:19:02;;;;;;;14.10;2.42;;;8.60;99.90;;;;;;5042128;28;20033;-77
2024/01/01 06:21:28;;;;;;;13.75;2.35;;;8.70;99.90;;;;;;5040957;28;20811;-77
2024/01/01 06:23:53;;;;;;;11.07;2.63;;;8.70;99.90;;;;;;5040787;28;20037;-76
2024/01/01 06:26:19;;;;;;;8.65;2.80;;;8.70;99.90;;;;;;5043408;28;20377;-76
2024/01/01 06:28:45;;;;;;;9.98;2.13;;;8.70;99.90;;;;;;5041821;28;20038;-77
2024/01/01 06:31:10;;;;;;;16.30;2.47;;;8.70;99.90;;;;;;5041964;28;20434;-77
2024/01/01 06:33:36;;;;;;;9.48;2.00;;;8.70;99.90;;;;;;5043675;28;20060;-77
2024/01/01 06:36:02;;;;;;;11.40;1.80;;;8.80;99.90;;;;;;5044523;28;20041;-77
2024/01/01 06:38:28;;;;;;;10.02;2.92;;;8.80;99.90;;;;;;5047742;28;20043;-77
2024/01/01 06:40:54;;;;;;;13.95;2.55;;;8.70;99.90;;;;;;5041363;28;20029;-77
2024/01/01 06:43:19;;;;;;;10.15;2.55;;;8.70;99.90;;;;;;5044844;28;20067;-77
2024/01/01 06:45:45;;;;;;;13.85;2.30;;;8.70;99.90;;;;;;5043505;28;20478;-77
2024/01/01 06:48:11;;;;;;;12.95;2.60;;;8.80;99.90;;;;;;5037871;28;20435;-77
2024/01/01 06:50:37;;;;;;;5.55;1.70;;;8.80;99.90;;;;;;5042144;28;20033;-77
2024/01/01 06:53:03;;;;;;;9.70;2.13;;;8.70;99.90;;;;;;5043845;28;20073;-77
2024/01/01 06:55:30;;;;;;;9.85;2.10;;;8.80;99.90;;;;;;5042034;28;20025;-77
2024/01/01 06:57:58;;;;;;;10.90;2.00;;;8.70;99.90;;;;;;5046542;28;20462;-77
2024/01/01 07:00:23;;;;;;;8.23;2.22;;;8.70;99.90;;;;;;5038085;28;20032;-77
2024/01/01 07:02:49;;;;;;;12.32;2.72;;;8.70;99.90;;;;;;5048682;28;20378;-77
2024/01/01 07:05:15;;;;;;;9.82;1.85;;;8.70;99.90;;;;;;5041427;28;20492;-77
2024/01/01 07:07:41;;;;;;;12.45;2.83;;;8.80;99.90;;;;;;5040706;28;20025;-77
2024/01/01 07:10:06;;;;;;;11.93;2.30;;;8.70;99.90;;;;;;5047130;28;20040;-77
2024/01/01 07:12:33;;;;;;;9.25;2.20;;;8.70;99.90;;;;;;5045672;28;20463;-77
2024/01/01 07:15:00;;;;;;;11.52;2.00;;;8.70;99.90;;;;;;5042328;28;20059;-77
2024/01/01 07:17:27;;;;;;;8.45;2.50;;;8.70;99.90;;;;;;5044444;28;20017;-77
2024/01/01 07:19:53;;;;;;;7.35;2.05;;;8.60;99.90;;;;;;5042019;28;20037;-77
2024/01/01 07:22:19;;;;;;;9.88;2.42;;;8.60;99.90;;;;;;5045325;28;20100;-77
2024/01/01 07:24:45;;;;;;;11.02;2.33;;;8.60;99.90;;;;;;5042878;28;20159;-77
2024/01/01 07:27:11;;;;;;;7.78;1.60;;;8.60;99.90;;;;;;5046477;28;20021;-77
2024/01/01 07:29:38;;;;;;;10.95;2.78;;;8.60;99.90;;;;;;5041133;28;20037;-76
2024/01/01 07:32:04;;;;;;;8.80;1.95;;;8.60;99.90;;;;;;5041864;28;20014;-77
2024/01/01 07:34:30;;;;;;;9.95;2.15;;;8.50;99.90;;;;;;5047063;28;20025;-76
2024/01/01 07:36:57;;;;;;;12.73;2.25;;;8.50;99.90;;;;;;5038453;28;20033;-76
2024/01/01 07:39:24;;;;;;;9.90;2.08;;;8.50;99.90;;;;;;5045032;28;20033;-77
2024/01/01 07:41:51;;;;;;;11.40;2.25;;;8.60;99.90;;;;;;5038628;28;20021;-77
2024/01/01 07:44:17;;;;;;;11.18;2.50;;;8.50;99.90;;;;;;5043936;28;20422;-77
2024/01/01 07:46:42;;;;;;;9.30;2.22;;;8.50;99.90;;;;;;5041773;28;20032;-76
2024/01/01 07:49:08;;;;;;;8.02;1.80;;;8.50;99.90;;;;;;5042132;28;20577;-77
2024/01/01 07:51:35;;;;;;;14.05;3.08;;;8.50;99.90;;;;;;5043589;28;20036;-77
2024/01/01 07:54:01;;;;;;;10.75;2.28;;;8.40;99.90;;;;;;5040893;28;20041;-77
2024/01/01 07:56:27;;;;;;;8.50;2.15;;;8.40;99.90;;;;;;5041501;28;20025;-76
2024/01/01 07:58:53;;;;;;;10.00;2.40;;;8.40;99.90;;;;;;5035489;28;20033;-76
2024/01/01 08:01:20;;;;;;;10.85;1.90;;;8.50;99.90;;;;;;5040189;28;20025;-77
2024/01/01 08:03:46;;;;;;;12.07;2.00;;;8.50;99.90;;;;;;5041250;28;20051;-77
2024/01/01 08:06:12;;;;;;;10.57;2.28;;;8.40;99.90;;;;;;5041273;28;20522;-77
2024/01/01 08:08:39;;;;;;;10.05;2.30;;;8.40;99.90;;;;;;5040821;28;20513;-77
2024/01/01 08:11:06;;;;;;;10.20;2.30;;;8.50;99.90;;;;;;5040306;28;20028;-77
2024/01/01 08:13:32;;;;;;;10.48;2.35;;;8.50;99.90;;;;;;5039878;28;20033;-77
2024/01/01 08:15:57;;;;;;;11.82;2.15;;;8.50;99.90;;;;;;5042479;28;20074;-77
2024/01/01 08:18:23;;;;;;;9.52;2.15;;;8.40;99.90;;;;;;5045704;28;20037;-77
2024/01/01 08:20:49;;;;;;;12.40;2.45;;;8.40;99.90;;;;;;5039946;28;20479;-77
2024/01/01 08:23:15;;;;;;;15.00;2.33;;;8.50;99.90;;;;;;5042300;28;20029;-77
2024/01/01 08:25:40;;;;;;;11.93;3.20;;;8.40;99.90;;;;;;5039792;28;20070;-77
2024/01/01 08:28:06;;;;;;;10.10;2.30;;;8.50;99.90;;;;;;5044549;28;20058;-77
2024/01/01 08:30:32;;;;;;;12.70;2.88;;;8.50;99.90;;;;;;5044108;28;20075;-77
2024/01/01 08:32:58;;;;;;;8.40;2.35;;;8.50;99.90;;;;;;5042245;28;20034;-77
2024/01/01 08:35:24;;;;;;;12.90;2.30;;;8.60;99.90;;;;;;5045781;28;20037;-77
2024/01/01 08:37:50;;;;;;;10.90;2.50;;;8.50;99.90;;;;;;5045221;28;20069;-76
2024/01/01 08:40:16;;;;;;;10.48;2.38;;;8.50;99.90;;;;;;5049341;28;20060;-77
2024/01/01 08:42:41;;;;;;;7.90;2.13;;;8.50;99.90;;;;;;5053576;28;20107;-77
2024/01/01 08:45:09;;;;;;;9.57;2.40;;;8.50;99.90;;;;;;5047007;28;20526;-77
2024/01/01 08:47:35;;;;;;;13.98;2.10;;;8.50;99.90;;;;;;5043366;28;21138;-77
2024/01/01 08:50:00;;;;;;;14.43;2.45;;;8.60;99.90;;;;;;5055912;28;20424;-76
2024/01/01 08:52:26;;;;;;;12.77;2.55;;;8.60;99.90;;;;;;5043711;28;20029;-77
2024/01/01 08:54:52;;;;;;;14.00;2.67;;;8.50;99.90;;;;;;5049071;28;20024;-76
2024/01/01 08:57:18;;;;;;;14.82;2.60;;;8.60;99.90;;;;;;5052948;28;20493;-76
2024/01/01 08:59:44;;;;;;;15.57;2.78;;;8.50;99.90;;;;;;5044324;28;20040;-76
2024/01/01 09:02:10;;;;;;;15.98;2.85;;;8.60;99.90;;;;;;5045127;28;20017;-77
2024/01/01 09:04:35;;;;;;;9.98;2.30;;;8.50;99.90;;;;;;5047235;28;20074;-77
2024/01/01 09:07:02;;;;;;;15.15;2.55;;;8.60;99.90;;;;;;5041415;28;20035;-76
2024/01/01 09:09:28;;;;;;;15.32;2.42;;;8.60;99.90;;;;;;5044929;28;20097;-77
2024/01/01 09:11:54;;;;;;;13.70;2.35;;;8.60;99.90;;;;;;5041947;28;20057;-76
2024/01/01 09:14:20;;;;;;;12.95;2.30;;;8.60;99.90;;;;;;5045931;28;20478;-76
2024/01/01 09:16:46;;;;;;;17.52;3.30;;;8.60;99.90;;;;;;5046440;28;20025;-76
2024/01/01 09:19:14;;;;;;;10.77;2.85;;;8.70;99.90;;;;;;5040559;28;20458;-76
2024/01/01 09:21:40;;;;;;;11.35;2.78;;;8.60;99.90;;;;;;5046494;28;20025;-76
2024/01/01 09:24:09;;;;;;;14.60;3.03;;;8.60;99.90;;;;;;5049813;28;20036;-76
2024/01/01 09:26:35;;;;;;;8.52;2.45;;;8.70;99.90;;;;;;5047834;28;20025;-76
2024/01/01 09:29:01;;;;;;;9.73;2.78;;;8.70;99.90;;;;;;5052961;28;20368;-76
2024/01/01 09:31:27;;;;;;;13.18;2.75;;;8.80;99.90;;;;;;5045160;28;20049;-76
2024/01/01 09:33:54;;;;;;;13.82;2.60;;;8.70;99.90;;;;;;5039390;28;20478;-75
2024/01/01 09:36:23;;;;;;;7.03;2.50;;;8.80;99.90;;;;;;5040935;28;20029;-76
2024/01/01 09:38:49;;;;;;;13.93;2.50;;;8.90;99.90;;;;;;5050214;28;20120;-76
2024/01/01 09:41:14;;;;;;;9.38;2.60;;;8.90;99.90;;;;;;5042856;28;20100;-76
2024/01/01 09:43:53;;;;;;;9.82;2.35;;;9.00;99.90;;;;;;5047201;28;20359;-76
2024/01/01 09:46:20;;;;;;;16.42;2.78;;;8.90;99.90;;;;;;5046497;28;20041;-76
2024/01/01 09:48:46;;;;;;;20.20;3.30;;;9.00;99.90;;;;;;5045974;28;20056;-76
2024/01/01 09:51:13;;;;;;;21.05;2.65;;;9.10;99.90;;;;;;5041588;28;20059;-76
2024/01/01 09:53:39;;;;;;;17.30;3.30;;;9.20;99.90;;;;;;5045589;28;20025;-76
2024/01/01 09:56:05;;;;;;;14.90;3.10;;;9.30;99.90;;;;;;5041215;28;20034;-75
2024/01/01 09:58:43;;;;;;;15.70;2.72;;;9.30;99.90;;;;;;5046828;28;20021;-76
2024/01/01 10:01:10;;;;;;;17.63;2.70;;;9.20;99.90;;;;;;5050421;28;20025;-76
2024/01/01 10:03:36;;;;;;;11.65;2.60;;;9.20;99.90;;;;;;5041702;28;20141;-75
2024/01/01 10:06:12;;;;;;;15.45;3.20;;;9.20;99.90;;;;;;5041670;28;20108;-76
2024/01/01 10:08:39;;;;;;;10.70;2.53;;;9.20;99.90;;;;;;5050623;28;20048;-76
2024/01/01 10:11:20;;;;;;;14.13;3.00;;;9.40;99.90;;;;;;5042544;28;20029;-75
2024/01/01 10:13:47;;;;;;;15.10;2.65;;;9.50;99.90;;;;;;5040497;28;20524;-75
2024/01/01 10:16:25;;;;;;;10.13;2.65;;;9.50;99.90;;;;;;5045367;28;20053;-75
2024/01/01 10:18:57;;;;;;;13.02;2.95;;;9.50;99.90;;;;;;5047043;28;20037;-75
2024/01/01 10:21:28;;;;;;;16.40;3.17;;;9.40;99.90;;;;;;5042329;28;20033;-75
2024/01/01 10:23:55;;;;;;;16.95;2.97;;;9.50;99.90;;;;;;5048755;28;20025;-76
2024/01/01 10:26:20;;;;;;;18.65;3.13;;;9.50;99.90;;;;;;5050814;28;20124;-76
2024/01/01 10:28:47;;;;;;;10.82;2.47;;;9.60;99.90;;;;;;5036833;28;20486;-76
2024/01/01 10:31:14;;;;;;;17.73;3.15;;;9.60;99.90;;;;;;5040584;28;20385;-76
2024/01/01 10:33:47;;;;;;;21.15;3.65;;;9.50;99.90;;;;;;5037293;28;20075;-76
2024/01/01 10:36:16;;;;;;;15.02;2.92;;;9.50;99.90;;;;;;5050780;28;20086;-76
2024/01/01 10:38:44;;;;;;;19.80;3.10;;;9.50;99.90;;;;;;5040748;28;20120;-76
2024/01/01 10:41:12;;;;;;;16.67;3.20;;;9.50;99.90;;;;;;5045394;28;20025;-76
2024/01/01 10:43:40;;;;;;;14.52;3.10;;;9.60;99.90;;;;;;5040591;28;20398;-76
2024/01/01 10:46:06;;;;;;;13.80;2.97;;;9.50;99.90;;;;;;5044935;28;20560;-76
2024/01/01 10:48:36;;;;;;;19.42;3.58;;;9.50;99.90;;;;;;5040360;28;20041;-76
2024/01/01 10:51:21;;;;;;;19.83;3.47;;;9.60;99.90;;;;;;5047316;28;20029;-76
2024/01/01 10:54:31;;;;;;;17.70;3.83;;;9.60;99.90;;;;;;5039760;28;20028;-77
2024/01/01 10:56:57;;;;;;;17.38;3.92;;;9.60;99.90;;;;;;5047369;28;20033;-76
2024/01/01 10:59:32;;;;;;;15.63;3.35;;;9.60;99.90;;;;;;5041695;28;20108;-76
2024/01/01 11:01:57;;;;;;;18.50;3.15;;;9.60;99.90;;;;;;5044204;28;20024;-77
2024/01/01 11:04:24;;;;;;;21.40;3.60;;;9.60;99.90;;;;;;5045297;28;20021;-76
2024/01/01 11:06:49;;;;;;;17.63;3.72;;;9.60;99.90;;;;;;5039178;28;20025;-76
2024/01/01 11:09:21;;;;;;;14.18;3.10;;;9.70;99.90;;;;;;5041857;28;20545;-76
2024/01/01 11:11:54;;;;;;;19.73;3.45;;;9.70;99.90;;;;;;5050059;28;20027;-76
2024/01/01 11:14:34;;;;;;;20.20;3.72;;;9.70;99.90;;;;;;5039081;28;20409;-76
2024/01/01 11:17:10;;;;;;;22.15;4.32;;;9.70;99.90;;;;;;5043797;28;20040;-77
2024/01/01 11:19:46;;;;;;;16.83;3.38;;;9.60;99.90;;;;;;5047783;28;20078;-77
2024/01/01 11:22:23;;;;;;;18.13;2.83;;;9.70;99.90;;;;;;5044474;28;20068;-77
2024/01/01 11:24:50;;;;;;;13.30;3.42;;;9.70;99.90;;;;;;5042962;28;20021;-76
2024/01/01 11:27:31;;;;;;;14.95;3.45;;;9.70;99.90;;;;;;5036397;28;20160;-77
2024/01/01 11:30:07;;;;;;;19.42;3.45;;;9.70;99.90;;;;;;5038234;28;20033;-77
2024/01/01 11:32:37;;;;;;;14.93;3.78;;;9.80;99.90;;;;;;5038426;28;20025;-77
2024/01/01 11:35:15;;;;;;;18.15;3.78;;;9.90;99.90;;;;;;5044033;28;20047;-77
2024/01/01 11:37:42;;;;;;;25.25;3.78;;;9.80;99.90;;;;;;5039729;28;20034;-77
2024/01/01 11:40:12;;;;;;;22.40;3.55;;;10.00;99.90;;;;;;5041870;28;20029;-76
2024/01/01 11:42:38;;;;;;;21.17;4.05;;;10.00;99.90;;;;;;5050057;28;20819;-76
2024/01/01 11:45:08;;;;;;;18.75;4.43;;;10.00;99.90;;;;;;5042091;28;20070;-76
2024/01/01 11:47:34;;;;;;;16.38;3.50;;;10.00;99.90;;;;;;5041956;28;21015;-76
2024/01/01 11:50:02;;;;;;;19.70;4.20;;;10.00;99.90;;;;;;5039396;28;20548;-76
2024/01/01 11:52:28;;;;;;;23.48;3.97;;;10.00;99.90;;;;;;5044800;28;20029;-77
2024/01/01 11:54:53;;;;;;;23.95;4.45;;;10.00;99.90;;;;;;5034240;28;20402;-76
2024/01/01 11:57:19;;;;;;;24.40;5.15;;;10.00;99.90;;;;;;5038266;28;20025;-77
2024/01/01 11:59:45;;;;;;;19.73;4.97;;;10.00;99.90;;;;;;5038554;28;20021;-81
2024/01/01 12:02:12;;;;;;;24.02;4.53;;;10.10;99.90;;;;;;5040544;28;20592;-78
2024/01/01 12:04:41;;;;;;;29.52;4.13;;;10.00;99.90;;;;;;5034953;28;20028;-77
2024/01/01 12:07:07;;;;;;;22.25;5.00;;;10.00;99.90;;;;;;5045285;28;20021;-77
2024/01/01 12:09:33;;;;;;;28.08;4.68;;;10.00;99.90;;;;;;5053932;28;20041;-78
2024/01/01 12:12:06;;;;;;;24.20;4.07;;;9.90;99.90;;;;;;5054033;28;20040;-79
2024/01/01 12:14:32;;;;;;;26.27;5.00;;;10.00;99.90;;;;;;5045311;28;20490;-79
2024/01/01 12:16:58;;;;;;;20.23;4.57;;;10.00;99.90;;;;;;5049334;28;20025;-79
2024/01/01 12:19:24;;;;;;;27.40;4.65;;;10.00;99.90;;;;;;5044742;28;20450;-77
2024/01/01 12:21:52;;;;;;;32.88;5.95;;;10.10;99.90;;;;;;5051631;28;20027;-77
2024/01/01 12:24:19;;;;;;;25.58;4.97;;;10.00;99.90;;;;;;5050730;28;20470;-76
2024/01/01 12:26:46;;;;;;;21.02;4.93;;;10.10;99.90;;;;;;5052280;28;20057;-75
2024/01/01 12:29:16;;;;;;;23.40;5.18;;;10.00;99.90;;;;;;5046207;28;20045;-75
2024/01/01 12:31:43;;;;;;;23.98;5.03;;;10.00;99.90;;;;;;5041088;28;20387;-77
2024/01/01 12:34:17;;;;;;;28.27;5.28;;;10.10;99.90;;;;;;5039862;28;21702;-74
2024/01/01 12:36:45;;;;;;;23.70;5.18;;;10.10;99.90;;;;;;5043330;28;20029;-76
2024/01/01 12:39:11;;;;;;;30.80;4.28;;;10.10;99.90;;;;;;5047971;28;20129;-77
2024/01/01 12:41:38;;;;;;;30.48;5.18;;;10.10;99.90;;;;;;5050058;28;20024;-75
2024/01/01 12:44:04;;;;;;;24.75;4.97;;;10.10;99.90;;;;;;5045505;28;20021;-76
2024/01/01 12:46:30;;;;;;;22.08;5.25;;;10.10;99.90;;;;;;5042235;28;20031;-76